Time;durP1;ratioP1;P1;durP2;ratioP2;P2;SDS_P1;SDS_P2;PMS_P1;PMS_P2;Temp;Humidity;BMP_temperature;BMP_pressure;BME280_temperature;BME280_humidity;BME280_pressure;Samples;Min_cycle;Max_cycle;Signal;HPM_P1;HPM_P2
2023/09/30 00:01:23;;;;;;;10.65;3.03;;;12.00;99.90;;;;;;4996698;28;20106;-78
2023/09/30 00:03:49;;;;;;;6.97;2.65;;;12.10;99.90;;;;;;4996163;28;20034;-79
2023/09/30 00:06:15;;;;;;;12.43;3.80;;;12.10;99.90;;;;;;4995298;28;20034;-79
2023/09/30 00:08:43;;;;;;;13.00;3.70;;;12.10;99.90;;;;;;4991996;28;20050;-79
2023/09/30 00:11:09;;;;;;;7.80;2.95;;;12.10;99.90;;;;;;4995167;28;20040;-78
2023/09/30 00:13:36;;;;;;;8.18;2.75;;;12.10;99.90;;;;;;4977599;28;20044;-78
2023/09/30 00:16:03;;;;;;;8.82;2.80;;;12.10;99.90;;;;;;4994481;28;20026;-78
2023/09/30 00:18:29;;;;;;;7.40;2.53;;;12.10;99.90;;;;;;5009795;28;20034;-78
2023/09/30 00:20:57;;;;;;;9.90;2.78;;;12.10;99.90;;;;;;4978678;28;20030;-78
2023/09/30 00:23:23;;;;;;;8.40;2.95;;;12.10;99.90;;;;;;4979695;28;20034;-78
2023/09/30 00:25:50;;;;;;;9.70;3.40;;;12.10;99.90;;;;;;4994849;28;20401;-78
2023/09/30 00:28:16;;;;;;;7.75;3.00;;;12.10;99.90;;;;;;5012185;28;20045;-82
2023/09/30 00:30:46;;;;;;;8.90;3.35;;;12.10;99.90;;;;;;5013559;28;20030;-79
2023/09/30 00:33:13;;;;;;;7.85;2.95;;;12.10;99.90;;;;;;4999927;28;20038;-79
2023/09/30 00:35:40;;;;;;;8.85;2.92;;;12.10;99.90;;;;;;4981145;28;20049;-79
2023/09/30 00:38:06;;;;;;;7.78;2.72;;;12.10;99.90;;;;;;4981974;28;20042;-79
2023/09/30 00:40:35;;;;;;;9.85;2.80;;;12.00;99.90;;;;;;4980046;28;20105;-79
2023/09/30 00:43:01;;;;;;;9.43;2.83;;;12.00;99.90;;;;;;4996942;28;20038;-79
2023/09/30 00:45:28;;;;;;;8.70;3.15;;;12.00;99.90;;;;;;4996754;28;20045;-79
2023/09/30 00:47:55;;;;;;;5.93;2.65;;;11.90;99.90;;;;;;4979552;28;20042;-79
2023/09/30 00:50:22;;;;;;;5.85;2.38;;;11.90;99.90;;;;;;4979697;28;20479;-79
2023/09/30 00:52:49;;;;;;;9.02;2.80;;;11.90;99.90;;;;;;4977496;28;20044;-79
2023/09/30 00:55:19;;;;;;;6.30;2.58;;;11.80;99.90;;;;;;4996621;28;20053;-79
2023/09/30 00:57:45;;;;;;;7.47;2.47;;;11.80;99.90;;;;;;4993201;28;20497;-79
2023/09/30 01:00:14;;;;;;;8.63;3.03;;;11.80;99.90;;;;;;4978642;28;20050;-79
2023/09/30 01:02:41;;;;;;;7.03;2.90;;;11.80;99.90;;;;;;4979025;28;20408;-79
2023/09/30 01:05:09;;;;;;;6.10;2.50;;;11.80;99.90;;;;;;4996301;28;20065;-79
2023/09/30 01:07:37;;;;;;;7.40;2.70;;;11.80;99.90;;;;;;4976138;28;20038;-79
2023/09/30 01:10:04;;;;;;;7.30;2.50;;;11.80;99.90;;;;;;4977351;28;20064;-79
2023/09/30 01:12:31;;;;;;;9.23;2.58;;;11.80;99.90;;;;;;4993986;28;20365;-79
2023/09/30 01:15:00;;;;;;;7.20;2.30;;;11.70;99.90;;;;;;4996208;28;20040;-79
2023/09/30 01:17:29;;;;;;;7.85;3.15;;;11.70;99.90;;;;;;4993911;28;20033;-79
2023/09/30 01:19:58;;;;;;;7.72;2.75;;;11.70;99.90;;;;;;4980554;28;20049;-79
2023/09/30 01:22:25;;;;;;;9.07;3.15;;;11.70;99.90;;;;;;4963311;28;20042;-79
2023/09/30 01:24:51;;;;;;;5.95;2.63;;;11.70;99.90;;;;;;4993327;28;20045;-79
2023/09/30 01:27:19;;;;;;;5.55;2.28;;;11.70;99.90;;;;;;4995085;28;20461;-79
2023/09/30 01:29:45;;;;;;;5.65;2.97;;;11.70;99.90;;;;;;4996400;28;20061;-79
2023/09/30 01:32:14;;;;;;;7.53;2.65;;;11.60;99.90;;;;;;4996027;28;20489;-79
2023/09/30 01:34:41;;;;;;;6.97;2.92;;;11.60;99.90;;;;;;4998136;28;20037;-79
2023/09/30 01:37:10;;;;;;;11.75;4.63;;;11.60;99.90;;;;;;4965574;28;20393;-80
2023/09/30 01:39:36;;;;;;;9.00;3.58;;;11.60;99.90;;;;;;5013711;28;20114;-78
2023/09/30 01:42:03;;;;;;;9.30;3.53;;;11.60;99.90;;;;;;4983120;28;20041;-79
2023/09/30 01:44:33;;;;;;;9.23;4.03;;;11.60;99.90;;;;;;4997378;28;20508;-79
2023/09/30 01:46:59;;;;;;;8.15;3.88;;;11.50;99.90;;;;;;5012505;28;20080;-78
2023/09/30 01:49:26;;;;;;;8.93;3.80;;;11.60;99.90;;;;;;4981513;28;20038;-78
2023/09/30 01:51:55;;;;;;;8.60;3.38;;;11.60;99.90;;;;;;4997817;28;20041;-78
2023/09/30 01:54:21;;;;;;;10.65;4.25;;;11.50;99.90;;;;;;4980034;28;20503;-78
2023/09/30 01:56:49;;;;;;;9.02;3.63;;;11.50;99.90;;;;;;4979026;28;20033;-78
2023/09/30 01:59:16;;;;;;;7.00;3.05;;;11.50;99.90;;;;;;4981456;28;20037;-78
2023/09/30 02:01:42;;;;;;;7.22;3.55;;;11.50;99.90;;;;;;4963104;28;20042;-78
2023/09/30 02:04:09;;;;;;;9.32;4.05;;;11.50;99.90;;;;;;4982187;28;20026;-79
2023/09/30 02:06:35;;;;;;;6.60;3.63;;;11.50;99.90;;;;;;4964626;28;20465;-78
2023/09/30 02:09:03;;;;;;;10.05;4.15;;;11.50;99.90;;;;;;4962296;28;20030;-78
2023/09/30 02:11:29;;;;;;;6.38;3.28;;;11.50;99.90;;;;;;4996000;28;20038;-78
2023/09/30 02:13:56;;;;;;;8.05;3.60;;;11.50;99.90;;;;;;5011094;28;20034;-78
2023/09/30 02:16:22;;;;;;;8.73;4.47;;;11.50;99.90;;;;;;4995594;28;20053;-78
2023/09/30 02:18:50;;;;;;;14.93;4.93;;;11.50;99.90;;;;;;4982536;28;20023;-78
2023/09/30 02:21:17;;;;;;;8.88;3.90;;;11.50;99.90;;;;;;4983056;28;20037;-78
2023/09/30 02:23:47;;;;;;;9.50;4.97;;;11.50;99.90;;;;;;4997644;28;20045;-78
2023/09/30 02:26:15;;;;;;;10.93;4.80;;;11.50;99.90;;;;;;4979688;28;20148;-78
2023/09/30 02:28:41;;;;;;;9.98;4.43;;;11.50;99.90;;;;;;5010828;28;20030;-77
2023/09/30 02:31:08;;;;;;;12.38;5.78;;;11.50;99.90;;;;;;4980845;28;20381;-78
2023/09/30 02:33:37;;;;;;;9.48;4.60;;;11.40;99.90;;;;;;4978860;28;20025;-78
2023/09/30 02:36:06;;;;;;;9.93;4.88;;;11.40;99.90;;;;;;4978465;28;20034;-78
2023/09/30 02:38:33;;;;;;;8.23;4.60;;;11.40;99.90;;;;;;4997301;28;20565;-78
2023/09/30 02:41:02;;;;;;;9.40;5.22;;;11.50;99.90;;;;;;4982042;28;20350;-78
2023/09/30 02:43:29;;;;;;;11.82;5.40;;;11.50;99.90;;;;;;4998274;28;20037;-78
2023/09/30 02:45:56;;;;;;;7.03;4.03;;;11.60;99.90;;;;;;4993354;28;20050;-78
2023/09/30 02:48:23;;;;;;;9.88;4.93;;;11.60;99.90;;;;;;4995792;28;20040;-78
2023/09/30 02:50:49;;;;;;;8.77;4.68;;;11.60;99.90;;;;;;4978751;28;20030;-78
2023/09/30 02:53:16;;;;;;;8.50;4.35;;;11.70;99.90;;;;;;4979824;28;20276;-78
2023/09/30 02:55:42;;;;;;;7.88;4.68;;;11.70;99.90;;;;;;4980098;28;20049;-78
2023/09/30 02:58:11;;;;;;;5.63;3.15;;;11.80;99.90;;;;;;4996285;28;20042;-78
2023/09/30 03:00:38;;;;;;;8.07;3.63;;;11.80;99.90;;;;;;4981590;28;20034;-78
2023/09/30 03:03:05;;;;;;;9.38;4.15;;;11.80;99.90;;;;;;4981195;28;20501;-78
2023/09/30 03:05:33;;;;;;;8.80;3.97;;;11.80;99.90;;;;;;4994094;28;20393;-78
2023/09/30 03:08:00;;;;;;;8.10;4.25;;;11.80;99.90;;;;;;4980586;28;20044;-78
2023/09/30 03:10:27;;;;;;;7.78;4.22;;;11.80;99.90;;;;;;4997872;28;20056;-78
2023/09/30 03:12:54;;;;;;;8.80;4.70;;;11.80;99.90;;;;;;4978932;28;20046;-78
2023/09/30 03:15:20;;;;;;;7.80;4.20;;;11.80;99.90;;;;;;4965502;28;20464;-78
2023/09/30 03:17:48;;;;;;;7.55;4.30;;;11.80;99.90;;;;;;4996819;28;20026;-77
2023/09/30 03:20:19;;;;;;;8.50;3.92;;;11.90;99.90;;;;;;4967346;28;20051;-78
2023/09/30 03:22:48;;;;;;;11.07;5.25;;;11.90;99.90;;;;;;4968599;28;20508;-78
2023/09/30 03:25:17;;;;;;;8.25;4.25;;;11.90;99.90;;;;;;5013768;28;20038;-78
2023/09/30 03:27:46;;;;;;;6.68;3.72;;;11.90;99.90;;;;;;4992534;28;20045;-77
2023/09/30 03:30:13;;;;;;;9.40;4.38;;;12.00;99.90;;;;;;4965710;28;20714;-78
2023/09/30 03:32:40;;;;;;;7.93;5.15;;;12.00;99.90;;;;;;4991031;28;20034;-78
2023/09/30 03:35:10;;;;;;;11.30;5.30;;;12.00;99.90;;;;;;4965222;28;20050;-78
2023/09/30 03:37:37;;;;;;;8.00;5.25;;;11.90;99.90;;;;;;4963808;28;20037;-78
2023/09/30 03:40:13;;;;;;;7.43;4.45;;;12.00;99.90;;;;;;4977986;28;21682;-78
2023/09/30 03:42:42;;;;;;;8.70;4.55;;;12.00;99.90;;;;;;4977679;28;20046;-78
2023/09/30 03:45:09;;;;;;;6.28;4.53;;;11.90;99.90;;;;;;4973261;28;20038;-78
2023/09/30 03:47:37;;;;;;;6.30;4.07;;;11.90;99.90;;;;;;4961091;28;20046;-78
2023/09/30 03:50:05;;;;;;;8.80;5.22;;;11.90;99.90;;;;;;4994258;28;20025;-78
2023/09/30 03:52:34;;;;;;;8.50;4.85;;;12.00;99.90;;;;;;4978641;28;20652;-78
2023/09/30 03:55:04;;;;;;;8.88;5.53;;;12.00;99.90;;;;;;4978200;28;20050;-78
2023/09/30 03:57:34;;;;;;;8.52;5.10;;;11.90;99.90;;;;;;5008738;28;20045;-79
2023/09/30 04:00:05;;;;;;;10.27;4.75;;;12.00;99.90;;;;;;4947703;28;20118;-78
2023/09/30 04:02:39;;;;;;;7.45;5.18;;;12.00;99.90;;;;;;4981138;28;20049;-78
2023/09/30 04:05:07;;;;;;;6.57;4.30;;;12.00;99.90;;;;;;4995405;28;20053;-79
2023/09/30 04:07:36;;;;;;;8.63;4.97;;;12.00;99.90;;;;;;4980722;28;20497;-79
2023/09/30 04:10:04;;;;;;;9.38;5.10;;;12.00;99.90;;;;;;5011204;28;20547;-78
2023/09/30 04:12:32;;;;;;;9.25;4.80;;;12.00;99.90;;;;;;4996660;28;20057;-79
2023/09/30 04:14:59;;;;;;;7.65;5.13;;;12.00;99.90;;;;;;5009541;28;20047;-78
2023/09/30 04:17:26;;;;;;;9.15;5.43;;;12.00;99.90;;;;;;4979750;28;20041;-78
2023/09/30 04:19:53;;;;;;;6.95;5.07;;;12.00;99.90;;;;;;4993866;28;20378;-79
2023/09/30 04:22:21;;;;;;;10.07;5.32;;;12.00;99.90;;;;;;4996461;28;20453;-79
2023/09/30 04:24:51;;;;;;;7.93;5.55;;;12.00;99.90;;;;;;4996103;28;20037;-79
2023/09/30 04:27:17;;;;;;;9.43;5.85;;;12.00;99.90;;;;;;4975944;28;20057;-79
2023/09/30 04:29:43;;;;;;;6.53;4.88;;;12.10;99.90;;;;;;4978335;28;20037;-79
2023/09/30 04:32:10;;;;;;;7.28;5.38;;;12.00;99.90;;;;;;4980393;28;20034;-79
2023/09/30 04:34:36;;;;;;;9.40;5.85;;;12.00;99.90;;;;;;4979751;28;20053;-78
2023/09/30 04:37:03;;;;;;;10.45;6.22;;;12.00;99.90;;;;;;4977576;28;20045;-78
2023/09/30 04:39:33;;;;;;;7.53;5.50;;;12.00;99.90;;;;;;4983967;28;20037;-79
2023/09/30 04:42:01;;;;;;;7.47;5.40;;;12.10;99.90;;;;;;4992687;28;20532;-78
2023/09/30 04:44:30;;;;;;;6.63;4.57;;;12.10;99.90;;;;;;4978733;28;20137;-78
2023/09/30 04:46:57;;;;;;;8.48;5.60;;;12.10;99.90;;;;;;4995789;28;20038;-78
2023/09/30 04:49:24;;;;;;;8.73;6.07;;;12.00;99.90;;;;;;4994715;28;20360;-78
2023/09/30 04:51:50;;;;;;;8.52;6.95;;;12.00;99.90;;;;;;4962345;28;20054;-78
2023/09/30 04:54:17;;;;;;;10.57;6.47;;;12.10;99.90;;;;;;4993895;28;20547;-78
2023/09/30 04:56:43;;;;;;;8.75;6.15;;;12.10;99.90;;;;;;4959827;28;20400;-78
2023/09/30 04:59:10;;;;;;;9.00;6.10;;;12.10;99.90;;;;;;4978993;28;20096;-79
2023/09/30 05:01:36;;;;;;;7.65;6.25;;;12.10;99.90;;;;;;4998512;28;20053;-77
2023/09/30 05:04:02;;;;;;;10.57;6.18;;;12.10;99.90;;;;;;4998628;28;20022;-78
2023/09/30 05:06:29;;;;;;;10.52;6.88;;;12.10;99.90;;;;;;4980734;28;20049;-78
2023/09/30 05:08:55;;;;;;;8.57;6.30;;;12.10;99.90;;;;;;4999765;28;20030;-78
2023/09/30 05:11:21;;;;;;;9.55;6.88;;;12.10;99.90;;;;;;5000330;28;20029;-78
2023/09/30 05:13:48;;;;;;;10.43;6.05;;;12.20;99.90;;;;;;4997438;28;20045;-78
2023/09/30 05:16:14;;;;;;;9.23;6.60;;;12.20;99.90;;;;;;4980882;28;20388;-78
2023/09/30 05:18:41;;;;;;;8.65;6.78;;;12.20;99.90;;;;;;4999319;28;20068;-78
2023/09/30 05:21:08;;;;;;;9.43;7.15;;;12.20;99.90;;;;;;4996240;28;20034;-78
2023/09/30 05:23:35;;;;;;;10.65;7.75;;;12.20;99.90;;;;;;4984050;28;20037;-78
2023/09/30 05:26:02;;;;;;;8.95;7.13;;;12.20;99.90;;;;;;4981077;28;20037;-78
2023/09/30 05:28:28;;;;;;;10.38;6.80;;;12.20;99.90;;;;;;4998715;28;20030;-78
2023/09/30 05:30:54;;;;;;;9.60;6.82;;;12.10;99.90;;;;;;5011708;28;20042;-78
2023/09/30 05:33:22;;;;;;;9.85;5.85;;;12.10;99.90;;;;;;5011796;28;20062;-78
2023/09/30 05:35:48;;;;;;;9.90;5.32;;;12.10;99.90;;;;;;4995267;28;20345;-78
2023/09/30 05:38:15;;;;;;;9.98;6.38;;;12.10;99.90;;;;;;4982629;28;20057;-78
2023/09/30 05:40:43;;;;;;;8.98;6.72;;;12.10;99.90;;;;;;4980093;28;20401;-78
2023/09/30 05:43:13;;;;;;;9.88;6.03;;;12.10;99.90;;;;;;4998119;28;20025;-78
2023/09/30 05:45:48;;;;;;;9.13;6.40;;;12.00;99.90;;;;;;4999134;28;20457;-78
2023/09/30 05:48:16;;;;;;;11.45;6.75;;;12.10;99.90;;;;;;4998095;28;20388;-78
2023/09/30 05:50:43;;;;;;;7.38;5.88;;;12.10;99.90;;;;;;5011839;28;20038;-78
2023/09/30 05:53:10;;;;;;;9.48;6.65;;;12.00;99.90;;;;;;4995906;28;20469;-79
2023/09/30 05:55:38;;;;;;;10.15;6.70;;;12.10;99.90;;;;;;4997174;28;20046;-78
2023/09/30 05:58:05;;;;;;;10.38;6.38;;;12.10;99.90;;;;;;4966028;28;20397;-77
2023/09/30 06:00:35;;;;;;;8.10;6.53;;;12.10;99.90;;;;;;4983263;28;20393;-78
2023/09/30 06:03:04;;;;;;;10.93;7.22;;;12.10;99.90;;;;;;4995938;28;20370;-78
2023/09/30 06:05:32;;;;;;;10.20;7.00;;;12.10;99.90;;;;;;4982063;28;20042;-77
2023/09/30 06:08:04;;;;;;;12.57;7.68;;;12.10;99.90;;;;;;4999123;28;20041;-77
2023/09/30 06:10:31;;;;;;;9.57;6.88;;;12.10;99.90;;;;;;4995578;28;20029;-77
2023/09/30 06:12:58;;;;;;;10.05;6.32;;;12.10;99.90;;;;;;4968880;28;20045;-77
2023/09/30 06:15:28;;;;;;;9.10;6.80;;;12.10;99.90;;;;;;4981067;28;20053;-76
2023/09/30 06:17:55;;;;;;;8.73;6.70;;;12.10;99.90;;;;;;4977229;28;20044;-77
2023/09/30 06:20:25;;;;;;;9.23;6.38;;;12.10;99.90;;;;;;4963694;28;20057;-80
2023/09/30 06:22:55;;;;;;;9.48;6.97;;;12.10;99.90;;;;;;4995286;28;20415;-79
2023/09/30 06:25:23;;;;;;;11.68;7.72;;;12.20;99.90;;;;;;4981275;28;20050;-79
2023/09/30 06:27:50;;;;;;;13.05;6.13;;;12.20;99.90;;;;;;4995486;28;20045;-79
2023/09/30 06:30:19;;;;;;;10.30;6.68;;;12.30;99.90;;;;;;5012121;28;20030;-84
2023/09/30 06:32:45;;;;;;;8.43;5.82;;;12.30;99.90;;;;;;4994158;28;20018;-82
2023/09/30 06:35:12;;;;;;;7.53;5.93;;;12.40;99.90;;;;;;4997630;28;20033;-80
2023/09/30 06:37:40;;;;;;;8.10;6.43;;;12.50;99.90;;;;;;4970285;28;20049;-78
2023/09/30 06:40:12;;;;;;;8.13;6.55;;;12.60;99.90;;;;;;5000014;28;20314;-79
2023/09/30 06:42:42;;;;;;;9.35;6.88;;;12.60;99.90;;;;;;4979346;28;20061;-78
2023/09/30 06:45:09;;;;;;;10.40;6.97;;;12.70;99.90;;;;;;4995951;28;20033;-80
2023/09/30 06:47:37;;;;;;;10.85;7.25;;;12.80;99.90;;;;;;4962844;28;20040;-79
2023/09/30 06:50:08;;;;;;;10.82;7.18;;;12.90;99.90;;;;;;4979205;28;20034;-88
2023/09/30 06:52:39;;;;;;;10.32;7.18;;;13.00;99.90;;;;;;4994469;28;20731;-86
2023/09/30 06:55:07;;;;;;;9.82;7.28;;;13.00;99.90;;;;;;4963670;28;20046;-80
2023/09/30 06:57:35;;;;;;;9.55;6.13;;;13.10;99.90;;;;;;4992533;28;20404;-80
2023/09/30 07:00:12;;;;;;;9.73;6.80;;;13.20;99.90;;;;;;4980312;28;20060;-81
2023/09/30 07:02:40;;;;;;;6.72;5.50;;;13.30;99.90;;;;;;4997017;28;20044;-82
2023/09/30 07:05:11;;;;;;;7.97;6.00;;;13.40;99.90;;;;;;4981382;28;20045;-83
2023/09/30 07:07:37;;;;;;;10.93;6.88;;;13.50;99.90;;;;;;4983395;28;20046;-81
2023/09/30 07:10:06;;;;;;;8.95;6.85;;;13.50;99.90;;;;;;4980102;28;20042;-79
2023/09/30 07:12:35;;;;;;;10.60;7.13;;;13.70;99.90;;;;;;4977810;28;20060;-80
2023/09/30 07:15:06;;;;;;;10.23;7.78;;;13.70;99.90;;;;;;4993499;28;20045;-81
2023/09/30 07:17:33;;;;;;;11.60;8.67;;;13.80;99.90;;;;;;4977645;28;20042;-81
2023/09/30 07:20:01;;;;;;;11.43;7.50;;;13.90;99.90;;;;;;4996583;28;20308;-81
2023/09/30 07:22:27;;;;;;;15.52;9.45;;;14.00;99.90;;;;;;4993863;28;20041;-81
2023/09/30 07:24:53;;;;;;;14.23;8.25;;;14.10;99.90;;;;;;4977773;28;20042;-79
2023/09/30 07:27:21;;;;;;;10.88;8.30;;;14.10;99.90;;;;;;4976482;28;21178;-81
2023/09/30 07:29:48;;;;;;;17.90;9.35;;;14.20;99.90;;;;;;4978978;28;20033;-81
2023/09/30 07:32:14;;;;;;;11.30;8.07;;;14.30;99.90;;;;;;4978144;28;20026;-82
2023/09/30 07:34:41;;;;;;;13.25;8.75;;;14.40;99.90;;;;;;4994217;28;20030;-81
2023/09/30 07:37:07;;;;;;;12.73;7.47;;;14.50;99.90;;;;;;4976658;28;20069;-82
2023/09/30 07:39:35;;;;;;;11.40;7.03;;;14.50;99.90;;;;;;4963182;28;20159;-83
2023/09/30 07:42:03;;;;;;;10.48;7.05;;;14.60;99.90;;;;;;4978760;28;20042;-77
2023/09/30 07:44:29;;;;;;;11.60;7.97;;;14.70;99.90;;;;;;4995054;28;20588;-77
2023/09/30 07:46:55;;;;;;;12.73;7.63;;;14.70;99.90;;;;;;4992242;28;20042;-78
2023/09/30 07:49:23;;;;;;;13.00;9.00;;;14.80;99.90;;;;;;4963513;28;20049;-77
2023/09/30 07:51:50;;;;;;;19.27;12.32;;;14.90;99.90;;;;;;4996720;28;20037;-77
2023/09/30 07:54:17;;;;;;;11.90;8.48;;;15.00;99.90;;;;;;4997990;28;20049;-78
2023/09/30 07:56:43;;;;;;;13.75;8.45;;;15.10;99.90;;;;;;4999361;28;20686;-77
2023/09/30 07:59:09;;;;;;;11.05;7.32;;;15.20;99.90;;;;;;4997043;28;20034;-76
2023/09/30 08:01:37;;;;;;;12.27;7.90;;;15.30;99.90;;;;;;5001243;28;20191;-77
2023/09/30 08:04:03;;;;;;;12.18;8.18;;;15.40;99.90;;;;;;4966772;28;20045;-77
2023/09/30 08:06:31;;;;;;;17.13;10.00;;;15.50;99.90;;;;;;5012027;28;20034;-77
2023/09/30 08:08:57;;;;;;;11.77;7.60;;;15.60;99.90;;;;;;4990096;28;20465;-76
2023/09/30 08:11:27;;;;;;;14.15;7.97;;;15.70;99.90;;;;;;4980646;28;20580;-77
2023/09/30 08:13:54;;;;;;;9.68;7.32;;;15.80;99.90;;;;;;4995581;28;20028;-76
2023/09/30 08:16:21;;;;;;;10.82;7.32;;;15.90;99.90;;;;;;4978344;28;20033;-77
2023/09/30 08:18:47;;;;;;;13.68;8.77;;;15.90;99.90;;;;;;4992953;28;20022;-77
2023/09/30 08:21:13;;;;;;;12.20;8.15;;;16.00;99.90;;;;;;4963702;28;20484;-77
2023/09/30 08:23:40;;;;;;;13.32;8.77;;;16.10;99.90;;;;;;4993237;28;20060;-77
2023/09/30 08:26:06;;;;;;;21.13;12.65;;;16.10;99.90;;;;;;4978300;28;20056;-77
2023/09/30 08:28:34;;;;;;;16.30;9.25;;;16.20;99.90;;;;;;4994980;28;20034;-77
2023/09/30 08:31:05;;;;;;;15.43;8.82;;;16.30;99.90;;;;;;4978415;28;20038;-77
2023/09/30 08:33:32;;;;;;;18.60;11.63;;;16.30;99.90;;;;;;4978248;28;20033;-77
2023/09/30 08:36:07;;;;;;;12.93;7.63;;;16.50;99.90;;;;;;4991717;28;20041;-78
2023/09/30 08:38:35;;;;;;;13.00;6.45;;;16.60;99.90;;;;;;4979780;28;20460;-78
2023/09/30 08:41:04;;;;;;;7.22;4.82;;;16.70;99.90;;;;;;4978245;28;20034;-77
2023/09/30 08:43:35;;;;;;;9.68;5.90;;;16.80;99.90;;;;;;4994302;28;20489;-77
2023/09/30 08:46:04;;;;;;;10.68;6.15;;;16.90;99.90;;;;;;4977594;28;20151;-77
2023/09/30 08:48:33;;;;;;;11.00;6.05;;;17.00;99.90;;;;;;4979592;28;20049;-77
2023/09/30 08:51:00;;;;;;;12.25;7.05;;;17.10;99.90;;;;;;4995190;28;20033;-77
2023/09/30 08:53:28;;;;;;;13.57;7.80;;;17.10;99.90;;;;;;4994867;28;20049;-77
2023/09/30 08:55:56;;;;;;;10.15;6.53;;;17.20;99.90;;;;;;4977419;28;20037;-77
2023/09/30 08:58:29;;;;;;;8.55;4.82;;;17.30;99.90;;;;;;4978196;28;20477;-77
2023/09/30 09:00:56;;;;;;;9.18;5.85;;;17.40;99.90;;;;;;4978597;28;20034;-77
2023/09/30 09:03:23;;;;;;;11.63;5.68;;;17.50;99.90;;;;;;4995192;28;20496;-77
2023/09/30 09:05:56;;;;;;;11.43;5.60;;;17.60;99.90;;;;;;4978105;28;20038;-78
2023/09/30 09:08:25;;;;;;;9.52;6.75;;;17.70;99.90;;;;;;4978000;28;20046;-77
2023/09/30 09:11:00;;;;;;;9.82;6.70;;;17.80;99.90;;;;;;4989361;28;20497;-77
2023/09/30 09:13:27;;;;;;;17.38;9.65;;;17.90;99.90;;;;;;4977572;28;20045;-77
2023/09/30 09:16:09;;;;;;;12.35;6.57;;;17.90;99.90;;;;;;4977262;28;20040;-77
2023/09/30 09:18:36;;;;;;;11.75;5.95;;;18.10;99.90;;;;;;4984957;28;20057;-77
2023/09/30 09:21:23;;;;;;;10.95;6.75;;;18.10;99.90;;;;;;5011500;28;20044;-77
2023/09/30 09:23:51;;;;;;;8.13;4.30;;;18.20;99.90;;;;;;4973332;28;20424;-78
2023/09/30 09:26:27;;;;;;;7.65;4.68;;;18.20;99.90;;;;;;4997246;28;20044;-78
2023/09/30 09:28:58;;;;;;;11.00;5.85;;;18.40;99.90;;;;;;4979873;28;20029;-78
2023/09/30 09:31:29;;;;;;;11.88;5.57;;;18.40;99.90;;;;;;4979586;28;20949;-78
2023/09/30 09:33:57;;;;;;;12.23;6.13;;;18.50;99.90;;;;;;4977506;28;20655;-78
2023/09/30 09:36:39;;;;;;;12.93;7.32;;;18.60;99.90;;;;;;4978840;28;20053;-77
2023/09/30 09:39:06;;;;;;;;;;;18.70;99.90;;;;;;4996005;28;20384;-78
2023/09/30 09:41:32;;;;;;;9.48;4.70;;;18.70;99.90;;;;;;4977721;28;19910;-78
2023/09/30 09:43:59;;;;;;;8.05;4.70;;;18.80;99.90;;;;;;4995392;28;20030;-78
2023/09/30 09:46:28;;;;;;;7.68;4.82;;;18.90;99.90;;;;;;5009921;28;20501;-78
2023/09/30 09:48:57;;;;;;;8.65;4.38;;;19.00;99.90;;;;;;4994991;28;20041;-78
2023/09/30 09:51:24;;;;;;;11.93;5.68;;;19.10;99.90;;;;;;4984590;28;20049;-78
2023/09/30 09:53:51;;;;;;;17.42;6.97;;;19.30;99.90;;;;;;4997716;28;20042;-78
2023/09/30 09:56:20;;;;;;;8.85;4.93;;;19.40;99.90;;;;;;4977970;28;20463;-78
2023/09/30 09:58:48;;;;;;;12.40;6.15;;;19.50;99.90;;;;;;4999034;28;20038;-78
2023/09/30 10:01:14;;;;;;;11.90;4.78;;;19.70;99.90;;;;;;4981939;28;20588;-78
2023/09/30 10:03:42;;;;;;;9.68;4.78;;;19.90;99.90;;;;;;4996628;28;20026;-78
2023/09/30 10:06:09;;;;;;;10.10;4.82;;;20.10;99.90;;;;;;4997995;28;20376;-78
2023/09/30 10:08:39;;;;;;;10.38;5.15;;;20.40;99.90;;;;;;4982779;28;20964;-78
2023/09/30 10:11:06;;;;;;;10.73;5.15;;;20.70;99.90;;;;;;4966559;28;20038;-79
2023/09/30 10:14:03;;;;;;;10.70;4.88;;;21.00;99.90;;;;;;4982379;28;20772;-78
2023/09/30 10:16:35;;;;;;;11.10;4.93;;;21.30;99.90;;;;;;4981657;28;20042;-78
2023/09/30 10:19:11;;;;;;;8.50;5.50;;;21.50;99.90;;;;;;4981900;28;20488;-79
2023/09/30 10:21:38;;;;;;;10.43;5.10;;;21.80;99.90;;;;;;4996110;28;20038;-79
2023/09/30 10:24:23;;;;;;;8.82;5.38;;;22.10;99.90;;;;;;4994497;28;20481;-78
2023/09/30 10:27:39;;;;;;;8.25;3.92;;;22.40;99.90;;;;;;4993110;28;20038;-79
2023/09/30 10:30:10;;;;;;;9.57;4.65;;;22.70;99.90;;;;;;4965599;28;20393;-78
2023/09/30 10:32:58;;;;;;;7.45;3.97;;;23.10;99.90;;;;;;4981139;28;20044;-79
2023/09/30 10:35:27;;;;;;;11.23;4.43;;;23.40;99.90;;;;;;4981069;28;20140;-80
2023/09/30 10:38:22;;;;;;;10.00;4.05;;;23.70;99.90;;;;;;4981957;28;20038;-79
2023/09/30 10:40:52;;;;;;;9.25;3.85;;;24.10;99.90;;;;;;5011494;28;20606;-80
2023/09/30 10:43:38;;;;;;;8.75;3.33;;;24.30;99.90;;;;;;4998939;28;20393;-79
2023/09/30 10:46:26;;;;;;;10.13;4.63;;;24.20;99.90;;;;;;4977943;28;20363;-80
2023/09/30 10:48:53;;;;;;;6.57;2.67;;;23.60;99.90;;;;;;4980298;28;20382;-81
2023/09/30 10:51:23;;;;;;;8.75;3.55;;;23.00;99.90;;;;;;4995223;28;20038;-79
2023/09/30 10:54:00;;;;;;;7.40;3.42;;;22.50;99.90;;;;;;5000480;28;20046;-82
2023/09/30 10:56:33;;;;;;;8.20;3.53;;;22.10;99.90;;;;;;4982417;28;20048;-78
2023/09/30 10:59:02;;;;;;;8.30;3.53;;;22.00;99.90;;;;;;4980266;28;20038;-83
2023/09/30 11:01:33;;;;;;;8.23;3.45;;;22.50;99.90;;;;;;4994900;28;20396;-78
2023/09/30 11:04:04;;;;;;;9.25;3.42;;;22.70;99.90;;;;;;4995543;28;20034;-76
2023/09/30 11:06:31;;;;;;;7.03;2.97;;;23.10;99.90;;;;;;4977574;28;20469;-82
2023/09/30 11:09:00;;;;;;;6.30;2.00;;;23.70;99.90;;;;;;4996304;28;20038;-80
2023/09/30 11:11:37;;;;;;;6.15;2.38;;;24.00;99.90;;;;;;4994263;28;20022;-80
2023/09/30 11:14:15;;;;;;;5.63;1.95;;;24.70;99.90;;;;;;4993764;28;20535;-83
2023/09/30 11:16:45;;;;;;;8.57;2.30;;;24.80;99.90;;;;;;5011082;28;20040;-79
2023/09/30 11:19:12;;;;;;;9.68;3.53;;;24.60;99.90;;;;;;4994150;28;20033;-79
2023/09/30 11:21:40;;;;;;;8.52;2.47;;;24.20;99.90;;;;;;4962787;28;20034;-78
2023/09/30 11:24:07;;;;;;;6.88;2.38;;;23.70;99.90;;;;;;4978435;28;20029;-79
2023/09/30 11:26:34;;;;;;;4.85;1.25;;;23.20;99.90;;;;;;4993938;28;20050;-80
2023/09/30 11:29:15;;;;;;;5.93;1.73;;;22.80;99.90;;;;;;4995450;28;20057;-79
2023/09/30 11:31:47;;;;;;;5.35;1.73;;;22.40;99.90;;;;;;4977494;28;20044;-79
2023/09/30 11:34:16;;;;;;;5.78;1.77;;;22.10;99.90;;;;;;4961535;28;20030;-77
2023/09/30 11:36:53;;;;;;;8.60;2.22;;;21.80;99.90;;;;;;4977623;28;20420;-79
2023/09/30 11:39:27;;;;;;;3.83;1.02;;;21.70;99.90;;;;;;4964995;28;20476;-79
2023/09/30 11:41:57;;;;;;;5.43;1.67;;;21.60;99.90;;;;;;4979359;28;20412;-78
2023/09/30 11:44:26;;;;;;;7.57;1.83;;;21.50;99.90;;;;;;4992358;28;20041;-80
2023/09/30 11:47:04;;;;;;;5.38;1.25;;;21.50;99.90;;;;;;4993625;28;20076;-77
2023/09/30 11:49:36;;;;;;;4.57;1.30;;;21.50;99.90;;;;;;4977037;28;20053;-79
2023/09/30 11:52:04;;;;;;;6.10;2.10;;;21.80;99.90;;;;;;4995491;28;20609;-80
2023/09/30 11:54:45;;;;;;;5.78;2.17;;;22.70;99.90;;;;;;4976240;28;20413;-77
2023/09/30 11:57:16;;;;;;;6.40;2.20;;;23.80;99.90;;;;;;4993036;28;20038;-85
2023/09/30 11:59:46;;;;;;;4.88;1.23;;;24.90;99.90;;;;;;4979282;28;20432;-80
2023/09/30 12:02:14;;;;;;;7.53;1.73;;;25.90;99.90;;;;;;4994243;28;20033;-78
2023/09/30 12:04:43;;;;;;;4.88;1.63;;;26.70;99.90;;;;;;4974056;28;20065;-77
2023/09/30 12:07:09;;;;;;;7.50;1.65;;;27.30;99.90;;;;;;4978618;28;20029;-78
2023/09/30 12:09:37;;;;;;;5.82;1.63;;;27.60;99.90;;;;;;4979340;28;20653;-79
2023/09/30 12:12:04;;;;;;;6.95;1.65;;;27.70;99.90;;;;;;4995357;28;20049;-77
2023/09/30 12:14:31;;;;;;;5.97;1.58;;;27.50;99.60;;;;;;4976923;28;20428;-79
2023/09/30 12:16:58;;;;;;;4.30;1.20;;;27.20;99.20;;;;;;4979517;28;20393;-78
2023/09/30 12:19:26;;;;;;;3.95;1.50;;;26.80;99.20;;;;;;4994701;28;20034;-77
2023/09/30 12:21:52;;;;;;;4.68;1.48;;;26.60;98.90;;;;;;4994413;28;20036;-79
2023/09/30 12:24:21;;;;;;;5.90;1.70;;;27.00;98.80;;;;;;4964247;28;20038;-77
2023/09/30 12:26:49;;;;;;;6.18;2.33;;;27.30;97.30;;;;;;4992383;28;20393;-77
2023/09/30 12:29:17;;;;;;;6.60;1.92;;;27.00;96.80;;;;;;4979591;28;20045;-80
2023/09/30 12:31:44;;;;;;;6.22;3.17;;;26.30;96.30;;;;;;4992773;28;20472;-81
2023/09/30 12:34:15;;;;;;;8.98;2.15;;;25.70;96.60;;;;;;4990743;28;20037;-81
2023/09/30 12:36:43;;;;;;;6.50;1.38;;;25.10;96.70;;;;;;4994013;28;20032;-78
2023/09/30 12:39:10;;;;;;;5.82;1.48;;;24.60;97.20;;;;;;4978473;28;20030;-78
2023/09/30 12:41:41;;;;;;;3.45;0.93;;;24.20;97.40;;;;;;4993287;28;20029;-79
2023/09/30 12:44:09;;;;;;;3.17;1.13;;;23.70;97.80;;;;;;4994352;28;20030;-77
2023/09/30 12:46:36;;;;;;;4.90;1.25;;;23.40;98.40;;;;;;4962768;28;20049;-78
2023/09/30 12:49:07;;;;;;;4.55;1.20;;;23.50;98.50;;;;;;4977641;28;20293;-78
2023/09/30 12:51:34;;;;;;;4.90;1.05;;;23.30;98.70;;;;;;4995023;28;20041;-78